Time;durP1;ratioP1;P1;durP2;ratioP2;P2;SDS_P1;SDS_P2;PMS_P1;PMS_P2;Temp;Humidity;BMP_temperature;BMP_pressure;BME280_temperature;BME280_humidity;BME280_pressure;Samples;Min_cycle;Max_cycle;Signal;HPM_P1;HPM_P2
2022/01/31 00:00:23;;;;;;;11.98;4.65;;;;;;;3.18;77.60;101516.41;5072912;28;20060;-80
2022/01/31 00:02:49;;;;;;;12.30;4.45;;;;;;;3.20;77.70;101508.75;5075326;28;20021;-80
2022/01/31 00:05:15;;;;;;;10.43;4.47;;;;;;;3.21;77.04;101478.00;5074901;28;20443;-80
2022/01/31 00:07:44;;;;;;;14.07;5.35;;;;;;;3.22;77.38;101451.53;5075430;28;20074;-80
2022/01/31 00:10:11;;;;;;;13.35;4.75;;;;;;;3.21;77.69;101442.09;5075614;28;20028;-80
2022/01/31 00:12:57;;;;;;;11.88;4.60;;;;;;;3.26;77.04;101431.94;5074472;28;20044;-80
2022/01/31 00:15:22;;;;;;;16.10;5.45;;;;;;;3.21;78.42;101431.84;5075793;28;20035;-80
2022/01/31 00:17:47;;;;;;;15.23;5.03;;;;;;;3.22;78.09;101441.25;5074374;28;20465;-80
2022/01/31 00:20:14;;;;;;;17.90;5.70;;;;;;;3.25;77.57;101430.19;5075351;28;20078;-80
2022/01/31 00:22:39;;;;;;;16.67;5.40;;;;;;;3.27;77.95;101417.41;5075568;28;20082;-80
2022/01/31 00:25:08;;;;;;;16.27;5.10;;;;;;;3.34;77.60;101402.19;5074245;28;20033;-80
2022/01/31 00:27:33;;;;;;;11.82;4.65;;;;;;;3.29;77.88;101390.97;5075491;28;20036;-80
2022/01/31 00:29:58;;;;;;;13.73;4.93;;;;;;;3.32;78.45;101388.47;5075021;28;20476;-80
2022/01/31 00:32:25;;;;;;;15.43;4.70;;;;;;;3.37;77.42;101373.19;5074145;28;20033;-80
2022/01/31 00:34:53;;;;;;;16.15;5.00;;;;;;;3.38;77.31;101362.06;5074880;28;20036;-81
2022/01/31 00:37:18;;;;;;;14.82;5.13;;;;;;;3.42;77.85;101355.34;5075032;28;20024;-80
2022/01/31 00:39:43;;;;;;;16.83;5.82;;;;;;;3.50;77.53;101338.41;5074029;28;20503;-80
2022/01/31 00:42:09;;;;;;;13.98;5.38;;;;;;;3.40;78.62;101324.50;5075324;28;20040;-80
2022/01/31 00:44:47;;;;;;;15.73;5.13;;;;;;;3.42;79.76;101301.44;5074798;28;20071;-81
2022/01/31 00:47:22;;;;;;;11.32;4.38;;;;;;;3.42;78.66;101299.75;5074234;28;20047;-80
2022/01/31 00:49:54;;;;;;;13.95;4.50;;;;;;;3.43;79.89;101288.66;5074348;28;20545;-80
2022/01/31 00:52:19;;;;;;;14.38;4.90;;;;;;;3.40;79.64;101286.00;5074536;28;20037;-80
2022/01/31 00:54:46;;;;;;;13.13;4.28;;;;;;;3.39;80.08;101258.63;5073894;28;20028;-81
2022/01/31 00:57:11;;;;;;;13.98;4.65;;;;;;;3.35;80.65;101261.97;5074325;28;20488;-80
2022/01/31 00:59:36;;;;;;;11.38;4.40;;;;;;;3.33;80.72;101263.63;5074409;28;20031;-80
2022/01/31 01:02:02;;;;;;;13.18;4.32;;;;;;;3.30;81.41;101255.84;5073582;28;20048;-81
2022/01/31 01:04:27;;;;;;;12.60;4.18;;;;;;;3.28;83.21;101234.44;5074764;28;20082;-80
2022/01/31 01:06:53;;;;;;;13.98;4.75;;;;;;;3.29;83.05;101225.91;5074293;28;20024;-80
2022/01/31 01:09:18;;;;;;;12.02;4.22;;;;;;;3.24;84.04;101221.56;5073637;28;20376;-81
2022/01/31 01:11:43;;;;;;;12.73;4.20;;;;;;;3.23;82.83;101209.56;5073828;28;20029;-81
2022/01/31 01:14:08;;;;;;;12.75;4.07;;;;;;;3.24;83.85;101206.16;5073574;28;20040;-80
2022/01/31 01:16:34;;;;;;;10.95;4.05;;;;;;;3.23;84.51;101199.31;5073692;28;20491;-81
2022/01/31 01:18:59;;;;;;;13.82;4.70;;;;;;;3.22;84.57;101189.88;5074207;28;20413;-81
2022/01/31 01:21:24;;;;;;;11.25;4.13;;;;;;;3.20;84.28;101178.72;5073380;28;20445;-81
2022/01/31 01:23:50;;;;;;;13.90;4.05;;;;;;;3.21;85.01;101171.88;5073931;28;20024;-82
2022/01/31 01:26:15;;;;;;;10.95;4.15;;;;;;;3.17;84.92;101165.81;5074209;28;20051;-81
2022/01/31 01:28:40;;;;;;;10.90;3.90;;;;;;;3.20;85.63;101154.78;5073596;28;20036;-81
2022/01/31 01:31:06;;;;;;;12.00;4.35;;;;;;;3.29;83.20;101129.31;5073758;28;20025;-81
2022/01/31 01:33:37;;;;;;;12.30;4.28;;;;;;;3.21;85.16;101128.25;5073414;28;20033;-81
2022/01/31 01:36:04;;;;;;;14.10;4.35;;;;;;;3.17;87.00;101122.22;5073091;28;20028;-82
2022/01/31 01:38:30;;;;;;;16.45;4.50;;;;;;;3.20;87.55;101118.88;5073561;28;20067;-81
2022/01/31 01:40:57;;;;;;;12.88;4.35;;;;;;;3.24;85.92;101116.38;5073626;28;20056;-81
2022/01/31 01:43:23;;;;;;;13.57;4.20;;;;;;;3.25;86.41;101096.72;5072784;28;20059;-81
2022/01/31 01:45:52;;;;;;;11.82;4.28;;;;;;;3.26;86.92;101105.28;5073439;28;20064;-81
2022/01/31 01:48:18;;;;;;;10.93;4.43;;;;;;;3.27;88.34;101078.78;5073531;28;20365;-81
2022/01/31 01:50:43;;;;;;;13.88;4.50;;;;;;;3.29;87.87;101080.56;5072987;28;20031;-80
2022/01/31 01:53:09;;;;;;;13.68;5.00;;;;;;;3.31;87.39;101058.38;5073714;28;20028;-82
2022/01/31 01:55:35;;;;;;;12.55;4.57;;;;;;;3.30;88.77;101048.94;5073593;28;20067;-81
2022/01/31 01:58:01;;;;;;;13.30;4.40;;;;;;;3.28;89.31;101040.34;5072369;28;20020;-81
2022/01/31 02:00:43;;;;;;;17.00;5.20;;;;;;;3.33;88.12;101023.31;5073368;28;20055;-81
2022/01/31 02:03:08;;;;;;;13.10;4.70;;;;;;;3.35;88.04;101019.09;5073392;28;20024;-82
2022/01/31 02:05:34;;;;;;;15.32;4.80;;;;;;;3.47;87.34;101008.19;5072881;28;20111;-82
2022/01/31 02:07:59;;;;;;;13.52;4.88;;;;;;;3.39;87.57;101004.59;5073194;28;20032;-81
2022/01/31 02:10:25;;;;;;;10.30;3.97;;;;;;;3.38;88.04;100995.16;5072588;28;20028;-80
2022/01/31 02:12:51;;;;;;;9.77;3.80;;;;;;;3.39;87.92;100991.78;5072898;28;20025;-81
2022/01/31 02:15:17;;;;;;;11.65;4.35;;;;;;;3.41;89.76;100995.22;5073483;28;20029;-81
2022/01/31 02:17:43;;;;;;;13.82;4.32;;;;;;;3.42;88.99;100981.56;5072171;28;20036;-81
2022/01/31 02:20:10;;;;;;;8.88;4.20;;;;;;;3.41;88.90;100979.84;5073233;28;20396;-81
2022/01/31 02:22:36;;;;;;;10.40;3.78;;;;;;;3.43;89.44;100970.47;5072788;28;20111;-81
2022/01/31 02:25:03;;;;;;;9.93;3.97;;;;;;;3.43;89.48;100960.22;5072091;28;20115;-81
2022/01/31 02:27:30;;;;;;;13.80;4.68;;;;;;;3.45;90.46;100973.94;5072670;28;20127;-81
2022/01/31 02:29:59;;;;;;;10.98;4.80;;;;;;;3.51;89.62;100981.72;5072785;28;20067;-81
2022/01/31 02:32:25;;;;;;;10.68;4.93;;;;;;;3.52;90.61;100990.28;5072115;28;20054;-81
2022/01/31 02:34:51;;;;;;;10.02;4.47;;;;;;;3.53;90.87;100985.16;5072705;28;20050;-81
2022/01/31 02:37:17;;;;;;;12.02;4.82;;;;;;;3.57;90.19;100974.97;5072703;28;20025;-81
2022/01/31 02:39:43;;;;;;;12.35;4.80;;;;;;;3.61;90.95;100979.28;5072097;28;20457;-81
2022/01/31 02:42:09;;;;;;;13.50;4.80;;;;;;;3.61;91.38;100957.06;5072521;28;20028;-82
2022/01/31 02:44:37;;;;;;;12.00;4.68;;;;;;;3.66;91.37;100945.16;5072276;28;20041;-81
2022/01/31 02:47:09;;;;;;;7.47;4.40;;;;;;;3.65;91.72;100942.56;5071862;28;20381;-81
2022/01/31 02:49:44;;;;;;;9.93;4.30;;;;;;;3.69;91.48;100942.63;5072875;28;20098;-81
2022/01/31 02:52:12;;;;;;;8.63;4.18;;;;;;;3.71;91.21;100930.69;5072803;28;20052;-81
2022/01/31 02:54:37;;;;;;;8.98;4.35;;;;;;;3.74;91.71;100926.44;5071460;28;20028;-81
2022/01/31 02:57:03;;;;;;;12.18;5.15;;;;;;;3.77;92.52;100922.22;5072232;28;20549;-81
2022/01/31 02:59:28;;;;;;;10.13;4.80;;;;;;;3.79;91.78;100906.81;5071645;28;20038;-81
2022/01/31 03:01:53;;;;;;;10.20;4.90;;;;;;;3.83;92.32;100912.00;5072511;28;20016;-81
2022/01/31 03:04:19;;;;;;;8.20;4.93;;;;;;;3.84;92.39;100906.03;5072293;28;20029;-81
2022/01/31 03:06:49;;;;;;;9.80;5.00;;;;;;;3.89;91.64;100900.97;5071687;28;20112;-81
2022/01/31 03:09:17;;;;;;;8.15;4.40;;;;;;;3.96;92.39;100909.63;5072539;28;20051;-81
2022/01/31 03:11:42;;;;;;;8.40;4.30;;;;;;;4.00;92.41;100908.81;5072563;28;20032;-81
2022/01/31 03:14:09;;;;;;;11.00;4.50;;;;;;;4.05;92.90;100917.47;5071340;28;20388;-81
2022/01/31 03:16:39;;;;;;;7.22;3.88;;;;;;;4.09;93.18;100901.22;5072487;28;20094;-81
2022/01/31 03:19:05;;;;;;;10.20;4.03;;;;;;;4.15;92.75;100891.03;5072296;28;20526;-81
2022/01/31 03:21:30;;;;;;;10.27;4.00;;;;;;;4.17;93.34;100878.22;5071398;28;20064;-80
2022/01/31 03:23:55;;;;;;;13.13;4.20;;;;;;;4.21;93.12;100873.97;5072089;28;20119;-81
2022/01/31 03:26:20;;;;;;;9.75;3.75;;;;;;;4.25;93.02;100878.31;5072292;28;20024;-81
2022/01/31 03:28:46;;;;;;;10.85;3.90;;;;;;;4.29;93.04;100877.47;5071420;28;20017;-81
2022/01/31 03:31:11;;;;;;;10.13;3.75;;;;;;;4.37;93.02;100875.88;5071811;28;20020;-81
2022/01/31 03:33:37;;;;;;;10.93;3.40;;;;;;;4.41;92.94;100875.03;5072446;28;20122;-81
2022/01/31 03:36:05;;;;;;;9.05;3.30;;;;;;;4.44;92.42;100869.94;5072902;28;20380;-81
2022/01/31 03:38:30;;;;;;;8.20;3.00;;;;;;;4.44;92.31;100867.38;5076152;28;20104;-81
2022/01/31 03:40:56;;;;;;;10.80;2.92;;;;;;;4.49;91.97;100862.28;5075338;28;20028;-81
2022/01/31 03:43:21;;;;;;;8.85;3.30;;;;;;;4.53;92.22;100863.16;5075151;28;20036;-81
2022/01/31 03:45:46;;;;;;;6.55;2.90;;;;;;;4.50;91.89;100845.16;5073057;28;20124;-81
2022/01/31 03:48:12;;;;;;;10.18;2.70;;;;;;;4.55;92.16;100846.06;5075771;28;20024;-81
2022/01/31 03:50:37;;;;;;;12.18;3.00;;;;;;;4.56;91.91;100848.63;5075030;28;20029;-81
2022/01/31 03:53:02;;;;;;;10.13;2.55;;;;;;;4.58;91.05;100852.06;5075404;28;20040;-81
2022/01/31 03:55:28;;;;;;;7.80;3.10;;;;;;;4.60;91.31;100841.81;5075855;28;20021;-81
2022/01/31 03:57:55;;;;;;;13.48;2.90;;;;;;;4.68;90.52;100852.16;5074466;28;20024;-81
2022/01/31 04:00:22;;;;;;;11.23;2.80;;;;;;;4.70;90.52;100861.63;5075939;28;20051;-82
2022/01/31 04:02:47;;;;;;;11.75;2.83;;;;;;;4.74;90.18;100857.38;5074724;28;20035;-81
2022/01/31 04:05:15;;;;;;;12.60;3.13;;;;;;;4.78;89.72;100857.41;5075105;28;20119;-81
2022/01/31 04:07:42;;;;;;;12.95;3.05;;;;;;;4.81;89.74;100863.44;5075586;28;20071;-81
2022/01/31 04:10:08;;;;;;;10.43;2.90;;;;;;;4.81;89.46;100843.72;5074021;28;20023;-82
2022/01/31 04:12:34;;;;;;;9.80;2.53;;;;;;;4.84;89.34;100840.31;5074942;28;20028;-81
2022/01/31 04:14:59;;;;;;;12.13;2.60;;;;;;;4.85;89.15;100836.88;5074798;28;20112;-81
2022/01/31 04:17:25;;;;;;;12.98;2.60;;;;;;;4.83;89.17;100846.31;5074669;28;20058;-82
2022/01/31 04:19:51;;;;;;;12.50;3.07;;;;;;;4.86;88.28;100841.16;5074962;28;20028;-81
2022/01/31 04:22:19;;;;;;;13.45;2.80;;;;;;;4.89;87.99;100830.91;5075511;28;20063;-81
2022/01/31 04:24:47;;;;;;;12.88;2.88;;;;;;;4.89;88.28;100834.38;5073962;28;20500;-81
2022/01/31 04:27:18;;;;;;;13.50;2.70;;;;;;;4.90;87.28;100835.22;5075284;28;20031;-81
2022/01/31 04:29:46;;;;;;;11.57;2.65;;;;;;;4.92;87.11;100821.50;5075013;28;20025;-82
2022/01/31 04:32:11;;;;;;;12.55;2.78;;;;;;;4.91;86.95;100826.66;5074492;28;20429;-82
2022/01/31 04:34:37;;;;;;;12.85;2.40;;;;;;;4.95;85.97;100831.84;5074706;28;20062;-82
2022/01/31 04:37:03;;;;;;;15.73;2.45;;;;;;;4.95;85.32;100826.69;5075267;28;20108;-82
2022/01/31 04:39:29;;;;;;;12.02;2.45;;;;;;;4.94;85.49;100830.09;5074854;28;20028;-82
2022/01/31 04:41:55;;;;;;;10.68;2.63;;;;;;;4.98;85.05;100830.13;5074480;28;20598;-82
2022/01/31 04:44:20;;;;;;;13.85;2.55;;;;;;;4.97;85.20;100818.97;5074678;28;20045;-82
2022/01/31 04:46:51;;;;;;;13.52;2.38;;;;;;;4.95;84.18;100834.41;5073047;28;20024;-82
2022/01/31 04:49:16;;;;;;;6.50;2.10;;;;;;;4.93;84.15;100823.22;5074637;28;20032;-83
2022/01/31 04:51:42;;;;;;;13.45;2.58;;;;;;;4.94;83.45;100827.53;5074680;28;20534;-82
2022/01/31 04:54:08;;;;;;;14.50;2.50;;;;;;;4.94;83.51;100829.25;5073769;28;20427;-82
2022/01/31 04:56:34;;;;;;;9.32;2.22;;;;;;;4.91;83.71;100824.94;5074780;28;20025;-82
2022/01/31 04:59:00;;;;;;;9.27;2.00;;;;;;;4.93;83.59;100823.22;5074038;28;20078;-81
2022/01/31 05:01:25;;;;;;;10.45;2.13;;;;;;;4.95;82.87;100826.69;5073658;28;20033;-82
2022/01/31 05:03:50;;;;;;;9.77;2.42;;;;;;;4.93;82.89;100820.66;5074325;28;20032;-82
2022/01/31 05:06:19;;;;;;;10.40;2.30;;;;;;;4.97;82.29;100820.69;5073790;28;20474;-82
2022/01/31 05:08:44;;;;;;;12.43;2.90;;;;;;;4.94;82.24;100816.41;5074178;28;20105;-82
2022/01/31 05:11:13;;;;;;;8.15;2.20;;;;;;;4.93;82.08;100818.09;5074561;28;20060;-82
2022/01/31 05:13:38;;;;;;;12.60;2.40;;;;;;;4.91;82.15;100817.22;5073684;28;20025;-82
2022/01/31 05:16:04;;;;;;;11.43;2.60;;;;;;;4.91;81.88;100803.50;5074145;28;20031;-82
2022/01/31 05:18:30;;;;;;;12.60;2.60;;;;;;;4.92;81.20;100802.66;5074268;28;20149;-82
2022/01/31 05:20:56;;;;;;;12.48;2.53;;;;;;;4.90;81.66;100792.34;5072842;28;20507;-82
2022/01/31 05:23:21;;;;;;;9.93;2.25;;;;;;;4.90;81.09;100788.91;5073992;28;20371;-82
2022/01/31 05:25:46;;;;;;;15.43;2.47;;;;;;;4.92;80.66;100800.09;5073734;28;20025;-81
2022/01/31 05:28:13;;;;;;;11.48;2.25;;;;;;;4.92;80.17;100775.22;5073100;28;20432;-82
2022/01/31 05:30:38;;;;;;;11.83;2.30;;;;;;;4.95;79.96;100789.84;5073651;28;20028;-82
2022/01/31 05:33:03;;;;;;;12.25;2.47;;;;;;;4.93;80.10;100778.66;5073511;28;20043;-82
2022/01/31 05:35:29;;;;;;;13.18;2.40;;;;;;;4.91;79.97;100763.22;5073351;28;20077;-82
2022/01/31 05:37:54;;;;;;;12.95;2.45;;;;;;;4.95;79.76;100766.69;5073387;28;20099;-84
2022/01/31 05:40:20;;;;;;;11.27;2.45;;;;;;;4.93;79.38;100758.94;5073831;28;20020;-83
2022/01/31 05:42:45;;;;;;;8.52;2.53;;;;;;;4.95;80.17;100748.69;5072374;28;20032;-83
2022/01/31 05:45:10;;;;;;;13.02;2.40;;;;;;;4.94;79.77;100752.09;5073018;28;20044;-84
2022/01/31 05:47:36;;;;;;;11.95;2.70;;;;;;;4.96;80.49;100742.66;5073688;28;20017;-84
2022/01/31 05:50:03;;;;;;;11.43;2.28;;;;;;;4.89;81.76;100762.34;5072730;28;20291;-83
2022/01/31 05:52:28;;;;;;;16.15;3.30;;;;;;;4.84;82.29;100752.91;5073658;28;20035;-83
2022/01/31 05:54:53;;;;;;;10.02;2.50;;;;;;;4.77;82.16;100759.69;5073046;28;20381;-83
2022/01/31 05:57:19;;;;;;;9.45;2.20;;;;;;;4.69;82.83;100777.63;5072680;28;20016;-81
2022/01/31 05:59:44;;;;;;;14.25;2.65;;;;;;;4.67;83.48;100797.31;5072661;28;20491;-81
2022/01/31 06:02:10;;;;;;;12.57;2.88;;;;;;;4.55;84.54;100821.22;5073490;28;20021;-82
2022/01/31 06:04:35;;;;;;;10.13;2.33;;;;;;;4.25;86.51;100812.34;5072409;28;20039;-82
2022/01/31 06:07:01;;;;;;;13.13;2.60;;;;;;;4.10;86.72;100791.66;5073172;28;20032;-81
2022/01/31 06:09:28;;;;;;;9.80;2.17;;;;;;;4.01;86.76;100793.25;5072136;28;20401;-81
2022/01/31 06:11:54;;;;;;;14.00;2.55;;;;;;;3.96;87.53;100788.91;5073056;28;20389;-81
2022/01/31 06:14:19;;;;;;;10.13;2.40;;;;;;;3.97;88.08;100783.81;5073202;28;20021;-81
2022/01/31 06:16:45;;;;;;;12.70;2.28;;;;;;;3.93;88.38;100794.03;5072021;28;20038;-81
2022/01/31 06:19:10;;;;;;;9.95;2.30;;;;;;;3.90;88.25;100799.13;5072779;28;20028;-81
2022/01/31 06:21:35;;;;;;;7.05;2.30;;;;;;;3.89;87.31;100780.28;5073262;28;20102;-80
2022/01/31 06:24:01;;;;;;;9.88;2.10;;;;;;;3.84;88.18;100780.22;5072041;28;20020;-81
2022/01/31 06:26:28;;;;;;;12.00;2.42;;;;;;;3.86;87.92;100772.56;5072810;28;20021;-82
2022/01/31 06:28:53;;;;;;;9.77;2.40;;;;;;;3.86;88.06;100781.13;5072073;28;20020;-81
2022/01/31 06:31:19;;;;;;;11.90;2.72;;;;;;;3.82;88.17;100766.53;5072035;28;20042;-81
2022/01/31 06:33:44;;;;;;;11.57;2.33;;;;;;;3.90;87.88;100770.91;5072411;28;20389;-82
2022/01/31 06:36:09;;;;;;;14.10;2.60;;;;;;;3.96;86.61;100761.56;5072789;28;20387;-81
2022/01/31 06:38:38;;;;;;;5.55;1.95;;;;;;;3.98;87.42;100774.41;5072066;28;20062;-82
2022/01/31 06:41:05;;;;;;;7.22;2.30;;;;;;;3.96;87.43;100768.38;5072624;28;20112;-82
2022/01/31 06:43:30;;;;;;;15.93;2.85;;;;;;;4.00;86.55;100773.56;5072557;28;20025;-82
2022/01/31 06:45:55;;;;;;;10.05;2.45;;;;;;;4.01;86.79;100779.56;5071307;28;20456;-82
2022/01/31 06:48:20;;;;;;;13.48;2.30;;;;;;;4.04;86.43;100784.75;5072979;28;20056;-83
2022/01/31 06:50:46;;;;;;;9.23;2.28;;;;;;;4.02;87.18;100776.16;5072507;28;20510;-83
2022/01/31 06:53:12;;;;;;;10.05;2.50;;;;;;;3.98;87.26;100777.84;5072115;28;20025;-82
2022/01/31 06:55:38;;;;;;;11.23;2.55;;;;;;;3.94;87.28;100763.25;5072276;28;20025;-83
2022/01/31 06:58:03;;;;;;;12.65;2.45;;;;;;;3.94;87.14;100765.81;5072310;28;20028;-83
2022/01/31 07:00:29;;;;;;;11.80;2.50;;;;;;;3.93;86.68;100761.50;5071834;28;20052;-82
2022/01/31 07:02:54;;;;;;;13.32;2.58;;;;;;;3.99;86.33;100776.13;5072445;28;20032;-86
2022/01/31 07:05:21;;;;;;;15.00;3.22;;;;;;;3.99;87.07;100778.69;5072585;28;20107;-83
2022/01/31 07:07:47;;;;;;;10.05;2.28;;;;;;;3.95;86.91;100772.66;5071789;28;20029;-83
2022/01/31 07:10:12;;;;;;;13.25;2.10;;;;;;;3.98;86.71;100774.41;5073299;28;20051;-83
2022/01/31 07:12:39;;;;;;;13.73;2.70;;;;;;;3.96;87.09;100770.94;5076246;28;20032;-83
2022/01/31 07:15:10;;;;;;;14.68;2.80;;;;;;;3.90;87.46;100758.91;5076326;28;20081;-81
2022/01/31 07:17:38;;;;;;;13.73;2.42;;;;;;;3.90;86.83;100761.47;5076544;28;20487;-81
2022/01/31 07:20:09;;;;;;;11.18;2.83;;;;;;;3.93;87.02;100758.09;5075749;28;20021;-81
2022/01/31 07:22:37;;;;;;;11.55;2.50;;;;;;;3.91;87.04;100760.63;5075997;28;20036;-82
2022/01/31 07:25:22;;;;;;;12.15;2.63;;;;;;;3.93;86.81;100755.53;5076040;28;20029;-81
2022/01/31 07:27:47;;;;;;;11.13;2.70;;;;;;;3.92;86.66;100767.50;5075479;28;20020;-81
2022/01/31 07:30:13;;;;;;;16.17;2.83;;;;;;;3.90;86.89;100763.19;5076037;28;20021;-82
2022/01/31 07:32:41;;;;;;;15.82;3.15;;;;;;;4.02;86.44;100778.72;5076204;28;20499;-81
2022/01/31 07:35:09;;;;;;;13.55;2.50;;;;;;;3.94;86.99;100799.19;5075088;28;20078;-81
2022/01/31 07:37:35;;;;;;;15.48;2.90;;;;;;;3.94;87.58;100793.19;5075793;28;20052;-81
2022/01/31 07:40:02;;;;;;;14.45;3.03;;;;;;;3.94;87.84;100799.19;5075742;28;20025;-81
2022/01/31 07:42:28;;;;;;;;;;;;;;;3.93;87.71;100807.72;5075887;28;20025;-82
2022/01/31 07:44:54;;;;;;;15.37;2.80;;;;;;;3.93;87.87;100805.16;5075928;28;19923;-81
2022/01/31 07:47:22;;;;;;;12.27;2.53;;;;;;;3.92;87.68;100794.88;5075988;28;20060;-81
2022/01/31 07:49:47;;;;;;;14.95;2.58;;;;;;;3.87;87.81;100792.28;5074581;28;20024;-83
2022/01/31 07:52:13;;;;;;;13.73;2.60;;;;;;;3.83;87.77;100793.91;5075853;28;20028;-82
2022/01/31 07:54:39;;;;;;;12.98;2.40;;;;;;;3.82;88.16;100789.66;5075867;28;20027;-82
2022/01/31 07:57:05;;;;;;;13.70;2.50;;;;;;;3.84;87.75;100785.38;5074918;28;20032;-83
2022/01/31 07:59:30;;;;;;;14.32;2.58;;;;;;;3.81;88.79;100784.47;5075503;28;20036;-83
2022/01/31 08:01:55;;;;;;;17.02;3.42;;;;;;;3.83;87.88;100790.50;5074614;28;20029;-83
2022/01/31 08:04:21;;;;;;;12.70;2.92;;;;;;;3.85;87.96;100789.66;5075756;28;20020;-82
2022/01/31 08:06:49;;;;;;;16.63;3.00;;;;;;;3.84;87.80;100795.63;5074952;28;20481;-82
2022/01/31 08:09:14;;;;;;;18.33;3.35;;;;;;;3.90;87.26;100791.44;5074955;28;20040;-83
2022/01/31 08:11:39;;;;;;;12.93;3.17;;;;;;;3.93;87.65;100778.63;5075759;28;20036;-83
2022/01/31 08:14:19;;;;;;;14.55;2.80;;;;;;;3.97;87.23;100786.38;5075152;28;20033;-82
2022/01/31 08:16:44;;;;;;;13.88;2.42;;;;;;;3.94;87.14;100799.19;5074417;28;20426;-82
2022/01/31 08:19:10;;;;;;;19.23;3.13;;;;;;;3.99;87.08;100801.81;5075260;28;20032;-83
2022/01/31 08:21:36;;;;;;;20.33;3.00;;;;;;;3.96;87.67;100802.63;5074803;28;20056;-83
2022/01/31 08:24:02;;;;;;;16.45;2.97;;;;;;;3.94;87.61;100799.19;5074465;28;20070;-83
2022/01/31 08:26:28;;;;;;;22.25;3.60;;;;;;;3.98;87.71;100810.34;5075105;28;20032;-82
2022/01/31 08:29:04;;;;;;;18.45;2.92;;;;;;;3.95;88.02;100800.91;5075251;28;20107;-82
2022/01/31 08:31:34;;;;;;;13.60;2.70;;;;;;;3.94;88.44;100817.16;5074575;28;20028;-83
2022/01/31 08:36:43;;;;;;;16.60;2.97;;;;;;;3.95;88.21;100808.63;5075453;28;20040;-82
2022/01/31 08:39:13;;;;;;;;;;;;;;;3.96;87.82;100815.47;5074965;28;20086;-83
2022/01/31 08:41:42;;;;;;;14.80;3.15;;;;;;;3.92;88.56;100820.56;5075288;28;19973;-82
2022/01/31 08:44:10;;;;;;;19.05;3.60;;;;;;;3.94;88.56;100829.16;5073805;28;20040;-82
2022/01/31 08:46:39;;;;;;;18.65;3.30;;;;;;;3.96;88.28;100817.16;5074837;28;20041;-83
2022/01/31 08:49:05;;;;;;;19.65;3.50;;;;;;;3.95;88.30;100829.16;5074898;28;20044;-83
2022/01/31 08:51:30;;;;;;;18.00;3.43;;;;;;;3.94;87.63;100804.31;5073987;28;20035;-83
2022/01/31 08:53:56;;;;;;;19.60;3.17;;;;;;;4.02;87.54;100822.38;5074510;28;20663;-83
2022/01/31 08:56:21;;;;;;;17.55;3.20;;;;;;;4.05;87.10;100826.69;5074389;28;20503;-83
2022/01/31 08:58:48;;;;;;;20.77;3.60;;;;;;;4.09;87.31;100838.75;5073747;28;20035;-82
2022/01/31 09:01:20;;;;;;;22.08;3.42;;;;;;;4.13;87.23;100855.88;5074510;28;20029;-82
2022/01/31 09:06:20;;;;;;;21.83;3.60;;;;;;;4.11;87.92;100803.66;5087531;28;20044;-82
2022/01/31 09:08:45;;;;;;;20.00;3.20;;;;;;;4.00;87.93;100822.34;5079528;28;20147;-84
2022/01/31 09:11:11;;;;;;;19.30;3.45;;;;;;;4.00;88.11;100836.91;5074565;28;20108;-82
2022/01/31 09:13:37;;;;;;;20.98;3.85;;;;;;;4.02;88.21;100854.06;5073591;28;20025;-82
2022/01/31 09:16:03;;;;;;;17.75;3.05;;;;;;;3.93;88.94;100850.53;5074103;28;20028;-82
2022/01/31 09:18:29;;;;;;;19.67;3.60;;;;;;;3.91;88.88;100831.69;5074446;28;20408;-82
2022/01/31 09:20:55;;;;;;;19.50;3.60;;;;;;;3.93;88.29;100840.25;5073256;28;20020;-83
2022/01/31 09:23:21;;;;;;;20.48;3.60;;;;;;;3.94;88.32;100835.13;5074147;28;20158;-83
2022/01/31 09:25:47;;;;;;;17.45;3.03;;;;;;;3.95;88.96;100831.72;5073778;28;20493;-84
2022/01/31 09:28:14;;;;;;;19.77;3.53;;;;;;;4.01;88.65;100828.38;5072923;28;20028;-81
2022/01/31 09:30:42;;;;;;;18.80;3.65;;;;;;;4.01;88.52;100836.06;5074237;28;20028;-82
2022/01/31 09:33:10;;;;;;;21.35;3.30;;;;;;;4.06;88.12;100841.25;5073403;28;20039;-82
2022/01/31 09:35:36;;;;;;;22.70;3.55;;;;;;;4.05;87.30;100845.56;5069323;28;20025;-83
2022/01/31 09:38:03;;;;;;;19.20;3.65;;;;;;;4.08;88.08;100826.72;5072934;28;20036;-83
2022/01/31 09:40:28;;;;;;;18.88;3.15;;;;;;;4.18;86.04;100847.38;5074592;28;20028;-84
2022/01/31 09:43:38;;;;;;;19.90;3.90;;;;;;;4.22;86.56;100871.44;5075103;28;20024;-82
2022/01/31 09:46:02;;;;;;;18.10;3.22;;;;;;;4.17;86.69;100881.63;5071269;28;20132;-82
2022/01/31 09:50:57;;;;;;;21.23;3.75;;;;;;;4.20;87.13;100882.50;5072826;28;20475;-81
2022/01/31 09:53:23;;;;;;;17.77;3.40;;;;;;;4.14;87.29;100880.72;5073239;28;20082;-82
2022/01/31 09:55:49;;;;;;;21.35;3.47;;;;;;;4.09;88.11;100888.38;5072287;28;20032;-83
2022/01/31 09:58:14;;;;;;;19.38;4.18;;;;;;;4.06;87.91;100915.75;5074001;28;20020;-81
2022/01/31 10:00:39;;;;;;;19.30;3.60;;;;;;;4.00;88.76;100907.09;5073556;28;20064;-82
2022/01/31 10:03:09;;;;;;;22.50;3.85;;;;;;;3.96;88.94;100904.47;5072352;28;20032;-82
2022/01/31 10:05:35;;;;;;;21.75;4.07;;;;;;;3.94;88.39;100922.44;5072915;28;20119;-82
2022/01/31 10:08:12;;;;;;;18.95;3.90;;;;;;;3.98;88.19;100926.78;5073314;28;20536;-82
2022/01/31 10:10:40;;;;;;;24.33;4.15;;;;;;;3.93;88.47;100913.00;5072699;28;20020;-83
2022/01/31 10:16:34;;;;;;;19.42;3.55;;;;;;;3.95;88.73;100907.88;5072424;28;20106;-83
2022/01/31 10:19:05;;;;;;;24.83;4.10;;;;;;;4.02;87.92;100914.84;5073178;28;20024;-84
2022/01/31 10:21:33;;;;;;;26.92;4.20;;;;;;;4.05;87.59;100926.84;5073072;28;20489;-83
2022/01/31 10:23:58;;;;;;;25.60;4.32;;;;;;;4.09;86.67;100929.47;5072169;28;20483;-83
2022/01/31 10:26:28;;;;;;;28.70;5.45;;;;;;;4.11;86.91;100942.38;5073120;28;20025;-83
2022/01/31 10:29:18;;;;;;;27.83;5.43;;;;;;;4.14;86.79;100957.78;5073106;28;20099;-83
2022/01/31 10:32:03;;;;;;;24.95;4.43;;;;;;;4.17;86.00;100948.41;5071876;28;20025;-82
2022/01/31 10:34:31;;;;;;;29.10;5.28;;;;;;;4.21;85.43;100971.59;5073138;28;20075;-82
2022/01/31 10:37:08;;;;;;;25.67;4.18;;;;;;;4.25;85.50;100963.94;5071929;28;20124;-83
2022/01/31 10:53:11;;;;;;;26.92;4.85;;;;;;;4.28;83.23;100999.94;5072851;28;20029;-83
2022/01/31 10:55:36;;;;;;;27.85;4.90;;;;;;;4.28;83.58;100975.94;5072668;28;20461;-82
2022/01/31 10:58:08;;;;;;;26.90;4.60;;;;;;;4.35;82.90;100977.78;5071381;28;20024;-82
2022/01/31 11:00:36;;;;;;;27.05;4.93;;;;;;;4.33;82.82;100992.28;5055234;28;20029;-84
2022/01/31 11:03:24;;;;;;;22.83;4.75;;;;;;;4.35;82.78;100990.63;5072013;28;20483;-83
2022/01/31 11:05:50;;;;;;;21.75;4.65;;;;;;;4.32;84.03;100980.28;5071687;28;20036;-84
2022/01/31 11:08:17;;;;;;;21.95;3.90;;;;;;;4.31;84.50;100971.72;5072451;28;20025;-84
2022/01/31 11:10:42;;;;;;;23.60;4.45;;;;;;;4.28;84.39;100992.25;5072878;28;20024;-84
2022/01/31 11:13:08;;;;;;;23.10;4.32;;;;;;;4.26;84.15;100970.78;5071579;28;20027;-84
2022/01/31 11:15:40;;;;;;;23.60;4.60;;;;;;;4.23;84.42;101003.31;5072584;28;20103;-83
2022/01/31 11:18:06;;;;;;;25.13;4.35;;;;;;;4.24;84.61;101012.75;5072488;28;20070;-84
2022/01/31 11:20:33;;;;;;;26.30;4.45;;;;;;;4.20;84.87;101016.09;5071926;28;20370;-83
2022/01/31 11:23:00;;;;;;;22.05;4.50;;;;;;;4.18;85.30;101040.06;5072323;28;20499;-83
2022/01/31 11:25:28;;;;;;;25.08;4.28;;;;;;;4.18;85.34;101013.50;5072486;28;20033;-84
2022/01/31 11:27:59;;;;;;;23.67;4.75;;;;;;;4.16;85.92;101026.34;5071800;28;20044;-83
2022/01/31 11:30:25;;;;;;;24.15;4.30;;;;;;;4.15;86.55;101022.06;5072387;28;20100;-84
2022/01/31 11:32:51;;;;;;;22.85;4.43;;;;;;;4.18;85.02;101031.50;5072127;28;20071;-82
2022/01/31 11:35:17;;;;;;;26.05;4.53;;;;;;;4.14;86.20;101040.00;5071586;28;20035;-84
2022/01/31 11:37:42;;;;;;;24.17;4.82;;;;;;;4.13;86.18;101040.84;5072275;28;20112;-83
2022/01/31 11:40:10;;;;;;;22.73;4.25;;;;;;;4.09;86.73;101027.09;5071241;28;20021;-83
2022/01/31 11:42:40;;;;;;;25.42;4.95;;;;;;;4.06;87.29;101034.75;5072079;28;20115;-83
2022/01/31 11:45:11;;;;;;;22.58;4.15;;;;;;;4.06;87.15;101037.31;5071816;28;20092;-83
2022/01/31 11:47:38;;;;;;;25.13;4.50;;;;;;;4.05;86.95;101029.59;5071348;28;20024;-83
2022/01/31 11:50:06;;;;;;;26.60;4.97;;;;;;;4.08;87.05;101035.63;5071648;28;20569;-83